Footsville, North Carolina
Current Conditions -  °F | °C
As of 10:54 AM on Saturday 22 Nov 2014 (Local Time) from KINT Reporting Station
Clear Clear  
Wind Chill: 36°   Ceiling: Unl
Heat Index: 41°   Visibility: 10mi
Dew Point: 11°   Wind: 7mph
Humidity: 29%   Direction: NA
Pressure: 30.53"   Gusts: NA
Location:  36.1267°N, 80.6582°W
Report Text: KINT 221554Z VRB06KT 10SM CLR 05/M12 A3053 RMK AO2 SLP344 T00501117
Loading
Personal Weather Stations






























Interactive Weather Map New forecast layout! Learn more

10-Day Weather Forecast

Advertisements
Track Severe Weather on mobile